createdAt,value
2023-02-12T00:01:19.626Z,28.17
2023-02-12T00:03:47.234Z,28.77
2023-02-12T00:06:16.051Z,27.02
2023-02-12T00:08:44.052Z,26.45
2023-02-12T00:11:12.938Z,27.02
2023-02-12T00:13:40.669Z,25.70
2023-02-12T00:16:11.008Z,28.27
2023-02-12T00:18:38.300Z,27.70
2023-02-12T00:21:08.952Z,27.83
2023-02-12T00:23:38.116Z,25.13
2023-02-12T00:26:08.244Z,29.13
2023-02-12T00:28:36.210Z,26.38
2023-02-12T00:31:15.909Z,28.13
2023-02-12T00:33:43.497Z,25.88
2023-02-12T00:36:15.705Z,26.70
2023-02-12T00:38:43.292Z,28.05
2023-02-12T00:41:11.023Z,25.92
2023-02-12T00:43:38.377Z,26.65
2023-02-12T00:46:07.233Z,26.85
2023-02-12T00:48:35.558Z,27.75
2023-02-12T00:51:03.920Z,28.20
2023-02-12T00:53:31.336Z,26.10
2023-02-12T00:55:59.116Z,27.80
2023-02-12T00:58:26.595Z,25.83
2023-02-12T01:00:54.051Z,26.77
2023-02-12T01:03:24.032Z,26.90
2023-02-12T01:05:53.682Z,26.55
2023-02-12T01:08:22.109Z,26.85
2023-02-12T01:11:02.126Z,26.80
2023-02-12T01:13:31.221Z,26.15
2023-02-12T01:16:11.046Z,26.92
2023-02-12T01:18:38.515Z,26.60
2023-02-12T01:21:27.168Z,26.35
2023-02-12T01:23:55.748Z,26.83
2023-02-12T01:26:25.161Z,25.45
2023-02-12T01:28:55.585Z,27.27
2023-02-12T01:31:25.520Z,26.42
2023-02-12T01:33:55.736Z,25.88
2023-02-12T01:36:24.037Z,26.50
2023-02-12T01:38:51.807Z,26.90
2023-02-12T01:41:25.100Z,26.35
2023-02-12T01:44:19.794Z,28.50
2023-02-12T01:46:50.251Z,26.92
2023-02-12T01:49:24.366Z,26.60
2023-02-12T01:52:15.798Z,26.45
2023-02-12T01:54:43.994Z,27.27
2023-02-12T01:57:14.455Z,26.60
2023-02-12T01:59:45.731Z,27.52
2023-02-12T02:02:13.185Z,26.27
2023-02-12T02:04:51.780Z,27.83
2023-02-12T02:07:19.325Z,26.10
2023-02-12T02:09:47.028Z,26.65
2023-02-12T02:12:32.662Z,27.08
2023-02-12T02:15:00.839Z,26.63
2023-02-12T02:18:02.000Z,26.27
2023-02-12T02:20:47.959Z,25.48
2023-02-12T02:23:30.193Z,28.50
2023-02-12T02:26:15.420Z,27.02
2023-02-12T02:28:56.806Z,28.05
2023-02-12T02:31:33.836Z,28.58
2023-02-12T02:34:09.595Z,27.42
2023-02-12T02:37:00.761Z,27.10
2023-02-12T02:40:12.039Z,26.77
2023-02-12T02:42:58.748Z,25.90
2023-02-12T02:45:35.004Z,25.90
2023-02-12T02:48:11.279Z,26.92
2023-02-12T02:50:44.436Z,29.10
2023-02-12T02:53:21.593Z,26.45
2023-02-12T02:55:53.514Z,27.52
2023-02-12T02:58:29.509Z,27.70
2023-02-12T03:01:04.962Z,27.48
2023-02-12T03:03:50.794Z,29.10
2023-02-12T03:06:58.532Z,28.35
2023-02-12T03:09:45.395Z,27.13
2023-02-12T03:12:19.189Z,28.02
2023-02-12T03:14:57.867Z,28.13
2023-02-12T03:17:34.937Z,28.30
2023-02-12T03:20:37.120Z,26.95
2023-02-12T03:23:11.714Z,27.40
2023-02-12T03:25:49.711Z,27.13
2023-02-12T03:28:22.201Z,28.63
2023-02-12T03:30:53.597Z,28.75
2023-02-12T03:33:41.883Z,27.88
2023-02-12T03:36:38.092Z,26.30
2023-02-12T03:39:17.699Z,28.88
2023-02-12T03:41:55.716Z,26.52
2023-02-12T03:44:48.118Z,27.30
2023-02-12T03:47:36.913Z,28.50
2023-02-12T03:50:26.088Z,27.88
2023-02-12T03:52:53.378Z,28.00
2023-02-12T03:55:20.704Z,30.02
2023-02-12T03:58:00.989Z,29.05
2023-02-12T04:00:28.369Z,29.13
2023-02-12T04:02:55.938Z,29.65
2023-02-12T04:05:26.031Z,29.05
2023-02-12T04:07:55.760Z,28.25
2023-02-12T04:10:31.426Z,29.20
2023-02-12T04:13:28.968Z,28.92
2023-02-12T04:16:02.693Z,31.55
2023-02-12T04:18:46.741Z,31.70
2023-02-12T04:21:45.538Z,29.88
2023-02-12T04:24:50.089Z,28.55
2023-02-12T04:27:24.117Z,27.67
2023-02-12T04:30:27.316Z,28.52
2023-02-12T04:33:00.975Z,29.75
2023-02-12T04:35:28.196Z,28.70
2023-02-12T04:38:08.868Z,28.55
2023-02-12T04:40:38.580Z,27.55
2023-02-12T04:43:05.865Z,29.05
2023-02-12T04:45:36.110Z,28.27
2023-02-12T04:48:04.699Z,28.00
2023-02-12T04:50:40.879Z,30.40
2023-02-12T04:53:09.115Z,29.23
2023-02-12T04:55:36.754Z,29.35
2023-02-12T04:58:04.493Z,29.60
2023-02-12T05:00:31.786Z,29.50
2023-02-12T05:02:59.044Z,30.48
2023-02-12T05:05:26.659Z,29.67
2023-02-12T05:07:53.974Z,30.00
2023-02-12T05:10:21.287Z,29.85
2023-02-12T05:12:48.633Z,29.60
2023-02-12T05:15:16.058Z,31.52
2023-02-12T05:17:43.313Z,31.23
2023-02-12T05:20:11.115Z,30.05
2023-02-12T05:22:38.394Z,30.77
2023-02-12T05:25:06.317Z,31.35
2023-02-12T05:27:33.493Z,30.55
2023-02-12T05:30:00.827Z,29.92
2023-02-12T05:32:28.184Z,31.92
2023-02-12T05:34:55.390Z,30.58
2023-02-12T05:37:22.594Z,30.85
2023-02-12T05:39:50.738Z,31.67
2023-02-12T05:42:17.948Z,31.67
2023-02-12T05:44:45.216Z,30.20
2023-02-12T05:47:12.396Z,31.63
2023-02-12T05:49:39.848Z,29.42
2023-02-12T05:52:07.063Z,29.75
2023-02-12T05:54:34.345Z,30.20
2023-02-12T05:57:01.629Z,29.52
2023-02-12T05:59:29.079Z,30.75
2023-02-12T06:01:56.329Z,28.67
2023-02-12T06:04:26.399Z,30.25
2023-02-12T06:06:55.871Z,31.60
2023-02-12T06:09:24.067Z,33.10
2023-02-12T06:11:51.744Z,30.98
2023-02-12T06:14:20.793Z,30.83
2023-02-12T06:16:50.626Z,31.00
2023-02-12T06:19:18.921Z,31.70
2023-02-12T06:21:46.962Z,32.10
2023-02-12T06:24:15.963Z,30.35
2023-02-12T06:26:43.948Z,30.08
2023-02-12T06:29:11.600Z,31.15
2023-02-12T06:31:39.005Z,30.58
2023-02-12T06:34:10.620Z,30.73
2023-02-12T06:36:44.749Z,30.70
2023-02-12T06:39:14.022Z,31.75
2023-02-12T06:41:41.577Z,30.42
2023-02-12T06:44:08.858Z,31.55
2023-02-12T06:46:36.265Z,30.58
2023-02-12T06:49:03.874Z,31.73
2023-02-12T06:51:31.544Z,30.83
2023-02-12T06:53:59.161Z,32.60
2023-02-12T06:56:27.906Z,33.78
2023-02-12T06:58:57.716Z,32.75
2023-02-12T07:01:27.701Z,31.50
2023-02-12T07:03:58.394Z,32.17
2023-02-12T07:06:26.912Z,32.90
2023-02-12T07:08:55.250Z,32.25
2023-02-12T07:11:30.072Z,32.28
2023-02-12T07:13:57.502Z,32.58
2023-02-12T07:16:24.865Z,31.13
2023-02-12T07:18:52.274Z,32.22
2023-02-12T07:21:20.055Z,31.65
2023-02-12T07:23:51.046Z,33.22
2023-02-12T07:26:20.867Z,31.73
2023-02-12T07:28:48.596Z,32.72
2023-02-12T07:31:21.336Z,32.97
2023-02-12T07:33:49.837Z,32.10
2023-02-12T07:36:19.513Z,31.80
2023-02-12T07:38:47.088Z,30.95
2023-02-12T07:41:17.333Z,31.58
2023-02-12T07:43:46.287Z,33.70
2023-02-12T07:46:26.439Z,31.45
2023-02-12T07:48:54.415Z,30.13
2023-02-12T07:51:21.651Z,32.00
2023-02-12T07:53:50.139Z,32.45
2023-02-12T07:56:20.094Z,29.60
2023-02-12T07:58:49.594Z,31.35
2023-02-12T08:01:21.015Z,31.15
2023-02-12T08:03:49.524Z,30.67
2023-02-12T08:06:23.218Z,30.67
2023-02-12T08:08:56.417Z,30.40
2023-02-12T08:11:24.740Z,30.80
2023-02-12T08:13:52.266Z,31.88
2023-02-12T08:16:22.011Z,29.92
2023-02-12T08:18:50.007Z,30.08
2023-02-12T08:21:25.914Z,29.20
2023-02-12T08:23:57.519Z,29.77
2023-02-12T08:26:30.147Z,31.85
2023-02-12T08:29:18.980Z,29.92
2023-02-12T08:31:48.596Z,31.90
2023-02-12T08:34:22.105Z,30.83
2023-02-12T08:36:52.126Z,33.17
2023-02-12T08:39:19.702Z,31.55
2023-02-12T08:41:48.184Z,32.33
2023-02-12T08:44:16.799Z,31.42
2023-02-12T08:46:47.120Z,29.02
2023-02-12T08:49:17.447Z,29.98
2023-02-12T08:51:48.857Z,29.80
2023-02-12T08:54:18.790Z,30.30
2023-02-12T08:56:46.120Z,28.65
2023-02-12T08:59:14.903Z,30.23
2023-02-12T09:01:42.834Z,28.55
2023-02-12T09:04:19.118Z,29.60
2023-02-12T09:06:47.053Z,29.85
2023-02-12T09:09:15.140Z,28.00
2023-02-12T09:11:43.164Z,26.90
2023-02-12T09:14:14.395Z,28.48
2023-02-12T09:16:42.538Z,28.52
2023-02-12T09:19:13.133Z,29.90
2023-02-12T09:21:41.045Z,27.70
2023-02-12T09:24:09.058Z,30.70
2023-02-12T09:26:38.895Z,29.42
2023-02-12T09:29:06.334Z,29.17
2023-02-12T09:31:33.937Z,29.92
2023-02-12T09:34:04.086Z,29.65
2023-02-12T09:36:32.239Z,30.73
2023-02-12T09:39:00.619Z,29.80
2023-02-12T09:41:49.444Z,30.38
2023-02-12T09:45:01.357Z,30.48
2023-02-12T09:48:00.106Z,28.52
2023-02-12T09:50:59.406Z,29.02
2023-02-12T09:53:30.559Z,28.60
2023-02-12T09:55:58.315Z,29.30
2023-02-12T09:58:35.579Z,30.13
2023-02-12T10:01:13.087Z,29.00
2023-02-12T10:03:41.297Z,30.48
2023-02-12T10:06:15.324Z,27.58
2023-02-12T10:09:10.315Z,30.45
2023-02-12T10:11:54.105Z,30.70
2023-02-12T10:15:02.363Z,22.55
2023-02-12T10:18:02.968Z,17.92
2023-02-12T10:20:50.840Z,12.75
2023-02-12T10:23:53.959Z,11.07
2023-02-12T10:26:42.587Z,15.27
2023-02-12T10:29:25.255Z,14.88
2023-02-12T10:32:00.822Z,16.13
2023-02-12T10:34:34.104Z,18.88
2023-02-12T10:37:12.730Z,19.40
2023-02-12T10:39:48.123Z,20.02
2023-02-12T10:42:31.413Z,21.45
2023-02-12T10:44:58.700Z,22.33
2023-02-12T10:47:26.964Z,23.75
2023-02-12T10:50:00.625Z,22.90
2023-02-12T10:52:28.176Z,20.10
2023-02-12T10:54:55.532Z,18.92
2023-02-12T10:57:24.714Z,21.38
2023-02-12T11:00:13.704Z,19.23
2023-02-12T11:02:58.916Z,19.65
2023-02-12T11:05:29.126Z,18.65
2023-02-12T11:07:57.886Z,18.27
2023-02-12T11:10:37.892Z,19.55
2023-02-12T11:13:05.649Z,18.42
2023-02-12T11:15:46.328Z,20.13
2023-02-12T11:18:22.515Z,19.52
2023-02-12T11:20:52.722Z,18.88
2023-02-12T11:23:36.194Z,20.83
2023-02-12T11:26:07.596Z,20.42
2023-02-12T11:28:36.997Z,21.00
2023-02-12T11:31:22.663Z,20.33
2023-02-12T11:34:17.044Z,22.35
2023-02-12T11:36:50.082Z,21.25
2023-02-12T11:39:26.892Z,22.95
2023-02-12T11:41:58.415Z,24.05
2023-02-12T11:44:38.365Z,22.45
2023-02-12T11:47:12.250Z,22.63
2023-02-12T11:49:49.675Z,21.65
2023-02-12T11:52:29.599Z,22.35
2023-02-12T11:55:01.002Z,22.27
2023-02-12T11:57:43.601Z,22.45
2023-02-12T12:00:23.415Z,22.20
2023-02-12T12:03:23.573Z,21.05
2023-02-12T12:06:02.806Z,20.25
2023-02-12T12:08:48.589Z,21.70
2023-02-12T12:11:26.738Z,22.42
2023-02-12T12:14:22.972Z,22.45
2023-02-12T12:17:33.616Z,22.30
2023-02-12T12:20:11.538Z,20.67
2023-02-12T12:22:50.455Z,21.70
2023-02-12T12:25:31.854Z,21.52
2023-02-12T12:28:26.924Z,22.42
2023-02-12T12:31:15.650Z,21.70
2023-02-12T12:33:52.789Z,21.95
2023-02-12T12:36:56.025Z,21.80
2023-02-12T12:39:57.930Z,20.13
2023-02-12T12:42:43.872Z,21.00
2023-02-12T12:45:14.164Z,20.17
2023-02-12T12:48:01.281Z,19.73
2023-02-12T12:50:47.264Z,20.40
2023-02-12T12:53:38.718Z,21.00
2023-02-12T12:56:29.466Z,20.80
2023-02-12T12:59:24.726Z,20.80
2023-02-12T13:02:38.460Z,20.55
2023-02-12T13:05:35.839Z,19.38
2023-02-12T13:08:22.172Z,18.67
2023-02-12T13:10:55.312Z,21.00
2023-02-12T13:13:43.520Z,20.13
2023-02-12T13:16:31.149Z,20.65
2023-02-12T13:19:31.345Z,21.67
2023-02-12T13:22:14.003Z,22.30
2023-02-12T13:25:20.338Z,21.55
2023-02-12T13:27:49.434Z,23.00
2023-02-12T13:30:25.289Z,21.65
2023-02-12T13:33:11.438Z,21.08
2023-02-12T13:35:45.861Z,23.48
2023-02-12T13:38:23.045Z,22.17
2023-02-12T13:40:55.862Z,22.30
2023-02-12T13:43:47.360Z,22.13
2023-02-12T13:46:42.056Z,22.07
2023-02-12T13:49:26.459Z,21.98
2023-02-12T13:51:57.414Z,21.83
2023-02-12T13:54:57.793Z,22.65
2023-02-12T13:57:25.272Z,22.02
2023-02-12T13:59:54.331Z,23.58
2023-02-12T14:02:33.501Z,25.15
2023-02-12T14:05:03.272Z,22.77
2023-02-12T14:07:52.896Z,24.77
2023-02-12T14:10:34.208Z,22.38
2023-02-12T14:13:19.400Z,23.83
2023-02-12T14:15:53.892Z,23.80
2023-02-12T14:18:28.076Z,24.27
2023-02-12T14:21:13.766Z,22.60
2023-02-12T14:23:43.199Z,24.92
2023-02-12T14:26:22.663Z,23.88
2023-02-12T14:29:21.195Z,22.33
2023-02-12T14:31:48.791Z,22.80
2023-02-12T14:34:16.796Z,22.65
2023-02-12T14:36:46.799Z,22.95
2023-02-12T14:39:20.383Z,21.90
2023-02-12T14:41:49.484Z,22.17
2023-02-12T14:44:30.709Z,22.83
2023-02-12T14:47:13.271Z,23.63
2023-02-12T14:49:55.826Z,23.77
2023-02-12T14:52:27.601Z,22.13
2023-02-12T14:57:33.832Z,24.80
2023-02-12T15:00:22.050Z,21.48
2023-02-12T15:02:54.226Z,21.80
2023-02-12T15:05:27.144Z,23.88
2023-02-12T15:07:59.950Z,21.20
2023-02-12T15:10:41.325Z,23.55
2023-02-12T15:13:30.326Z,21.70
2023-02-12T15:16:06.710Z,23.20
2023-02-12T15:18:51.142Z,24.15
2023-02-12T15:21:32.031Z,22.38
2023-02-12T15:24:05.565Z,22.65
2023-02-12T15:26:47.346Z,22.05
2023-02-12T15:31:57.070Z,21.30
2023-02-12T15:34:28.029Z,21.88
2023-02-12T15:37:00.105Z,22.27
2023-02-12T15:39:31.636Z,22.85
2023-02-12T15:41:58.838Z,21.63
2023-02-12T15:44:29.355Z,22.65
2023-02-12T15:47:08.595Z,22.33
2023-02-12T15:49:37.862Z,21.67
2023-02-12T15:52:11.699Z,20.10
2023-02-12T15:54:39.540Z,21.58
2023-02-12T15:57:12.495Z,21.73
2023-02-12T15:59:41.401Z,21.20
2023-02-12T16:02:21.715Z,21.30
2023-02-12T16:04:49.561Z,21.48
2023-02-12T16:07:17.656Z,21.23
2023-02-12T16:09:45.909Z,23.02
2023-02-12T16:12:16.141Z,21.98
2023-02-12T16:14:47.968Z,22.52
2023-02-12T16:20:20.762Z,23.15
2023-02-12T16:22:50.453Z,23.35
2023-02-12T16:25:25.293Z,20.58
2023-02-12T16:28:05.321Z,21.83
2023-02-12T16:30:42.944Z,23.30
2023-02-12T16:33:43.443Z,24.08
2023-02-12T16:36:31.800Z,23.33
2023-02-12T16:39:08.622Z,23.98
2023-02-12T16:41:53.951Z,24.42
2023-02-12T16:44:26.120Z,24.10
2023-02-12T16:46:56.998Z,23.15
2023-02-12T16:49:26.509Z,23.80
2023-02-12T16:52:13.994Z,23.88
2023-02-12T16:54:41.301Z,24.67
2023-02-12T16:57:11.424Z,25.70
2023-02-12T16:59:43.449Z,24.73
2023-02-12T17:04:40.476Z,24.70
2023-02-12T17:07:21.404Z,23.40
2023-02-12T17:09:49.296Z,25.20
2023-02-12T17:12:17.130Z,24.88
2023-02-12T17:14:45.610Z,25.33
2023-02-12T17:17:13.354Z,23.52
2023-02-12T17:19:41.063Z,25.85
2023-02-12T17:22:17.799Z,26.83
2023-02-12T17:24:49.492Z,28.02
2023-02-12T17:27:17.103Z,26.30
2023-02-12T17:29:44.732Z,26.85
2023-02-12T17:32:12.680Z,27.40
2023-02-12T17:34:48.587Z,28.15
2023-02-12T17:37:18.183Z,26.95
2023-02-12T17:39:45.627Z,28.58
2023-02-12T17:42:12.887Z,28.60
2023-02-12T17:44:40.327Z,28.13
2023-02-12T17:47:07.653Z,27.85
2023-02-12T17:49:35.721Z,27.30
2023-02-12T17:52:04.787Z,30.55
2023-02-12T17:54:33.660Z,29.05
2023-02-12T17:57:00.941Z,27.33
2023-02-12T17:59:28.210Z,28.52
2023-02-12T18:01:55.963Z,29.08
2023-02-12T18:04:23.232Z,31.08
2023-02-12T18:06:50.502Z,28.88
2023-02-12T18:09:17.831Z,31.52
2023-02-12T18:11:45.096Z,27.98
2023-02-12T18:14:12.438Z,28.20
2023-02-12T18:16:39.778Z,31.80
2023-02-12T18:19:07.126Z,29.52
2023-02-12T18:21:35.134Z,31.05
2023-02-12T18:24:03.383Z,29.25
2023-02-12T18:26:30.784Z,30.58
2023-02-12T18:28:58.980Z,30.67
2023-02-12T18:31:27.062Z,31.55
2023-02-12T18:33:54.795Z,31.65
2023-02-12T18:36:23.184Z,32.75
2023-02-12T18:38:51.772Z,32.38
2023-02-12T18:41:21.985Z,31.63
2023-02-12T18:43:49.337Z,32.97
2023-02-12T18:46:22.586Z,33.75
2023-02-12T18:48:51.564Z,31.08
2023-02-12T18:51:24.635Z,33.05
2023-02-12T18:53:56.672Z,32.67
2023-02-12T18:58:56.447Z,33.92
2023-02-12T19:01:25.190Z,32.85
2023-02-12T19:03:59.084Z,36.35
2023-02-12T19:06:28.031Z,42.70
2023-02-12T19:09:01.379Z,38.70
2023-02-12T19:11:29.314Z,38.92
2023-02-12T19:13:57.013Z,35.45
2023-02-12T19:16:25.407Z,35.35
2023-02-12T19:18:54.950Z,34.90
2023-02-12T19:21:26.398Z,34.55
2023-02-12T19:23:58.736Z,34.75
2023-02-12T19:26:28.983Z,31.98
2023-02-12T19:28:57.302Z,34.60
2023-02-12T19:31:27.718Z,33.10
2023-02-12T19:33:57.782Z,32.33
2023-02-12T19:36:26.646Z,30.30
2023-02-12T19:38:54.121Z,33.38
2023-02-12T19:41:24.593Z,31.75
2023-02-12T19:44:00.874Z,30.90
2023-02-12T19:46:30.900Z,26.80
2023-02-12T19:49:01.181Z,28.40
2023-02-12T19:51:30.100Z,29.75
2023-02-12T19:54:01.915Z,29.05
2023-02-12T19:56:29.277Z,25.33
2023-02-12T19:58:57.819Z,24.75
2023-02-12T20:01:25.459Z,22.50
2023-02-12T20:03:52.959Z,22.05
2023-02-12T20:06:26.619Z,21.70
2023-02-12T20:08:54.053Z,21.65
2023-02-12T20:11:28.882Z,22.00
2023-02-12T20:13:56.987Z,22.73
2023-02-12T20:16:31.226Z,23.38
2023-02-12T20:19:02.162Z,21.95
2023-02-12T20:21:30.088Z,22.50
2023-02-12T20:23:59.030Z,22.45
2023-02-12T20:26:26.700Z,21.77
2023-02-12T20:28:54.259Z,21.98
2023-02-12T20:31:24.449Z,21.10
2023-02-12T20:33:56.377Z,22.45
2023-02-12T20:36:24.702Z,22.35
2023-02-12T20:38:56.058Z,23.38
2023-02-12T20:41:25.098Z,22.70
2023-02-12T20:43:53.023Z,21.55
2023-02-12T20:46:22.216Z,21.42
2023-02-12T20:48:50.090Z,20.20
2023-02-12T20:51:26.295Z,20.13
2023-02-12T20:53:55.489Z,18.55
2023-02-12T20:56:25.842Z,18.73
2023-02-12T20:58:54.384Z,18.63
2023-02-12T21:01:25.889Z,18.88
2023-02-12T21:03:54.668Z,18.45
2023-02-12T21:06:24.025Z,18.73
2023-02-12T21:08:51.558Z,24.42
2023-02-12T21:11:21.301Z,25.45
2023-02-12T21:13:58.905Z,24.95
2023-02-12T21:16:32.640Z,25.38
2023-02-12T21:19:00.248Z,24.63
2023-02-12T21:21:30.432Z,24.95
2023-02-12T21:23:59.366Z,21.52
2023-02-12T21:26:29.260Z,21.05
2023-02-12T21:28:58.769Z,18.50
2023-02-12T21:31:32.000Z,16.45
2023-02-12T21:34:01.274Z,16.02
2023-02-12T21:36:31.669Z,14.93
2023-02-12T21:38:59.315Z,14.20
2023-02-12T21:41:32.024Z,11.73
2023-02-12T21:44:01.957Z,11.90
2023-02-12T21:46:29.865Z,10.82
2023-02-12T21:48:59.268Z,10.00
2023-02-12T21:51:31.848Z,9.60
2023-02-12T21:54:01.562Z,8.32
2023-02-12T21:56:29.754Z,9.13
2023-02-12T21:58:59.345Z,8.65
2023-02-12T22:01:29.625Z,8.20
2023-02-12T22:03:56.912Z,7.03
2023-02-12T22:06:25.094Z,7.60
2023-02-12T22:08:53.831Z,7.28
2023-02-12T22:11:22.345Z,7.63
2023-02-12T22:13:49.756Z,7.47
2023-02-12T22:16:18.833Z,6.38
2023-02-12T22:18:47.584Z,6.50
2023-02-12T22:21:16.643Z,6.00
2023-02-12T22:23:44.855Z,6.05
2023-02-12T22:26:14.897Z,5.95
2023-02-12T22:28:44.920Z,5.10
2023-02-12T22:31:14.033Z,5.15
2023-02-12T22:33:41.298Z,5.50
2023-02-12T22:36:10.008Z,5.78
2023-02-12T22:38:38.684Z,6.45
2023-02-12T22:41:07.895Z,6.18
2023-02-12T22:43:36.830Z,6.72
2023-02-12T22:46:05.119Z,8.38
2023-02-12T22:48:32.336Z,7.95
2023-02-12T22:51:00.104Z,6.05
2023-02-12T22:53:27.519Z,6.43
2023-02-12T22:55:54.869Z,6.15
2023-02-12T22:58:22.115Z,6.35
2023-02-12T23:00:49.411Z,5.60
2023-02-12T23:03:16.655Z,4.97
2023-02-12T23:05:43.869Z,4.93
2023-02-12T23:08:11.068Z,5.35
2023-02-12T23:10:38.313Z,8.98
2023-02-12T23:13:05.624Z,8.05
2023-02-12T23:15:32.915Z,5.80
2023-02-12T23:18:00.085Z,4.80
2023-02-12T23:20:27.404Z,5.18
2023-02-12T23:22:54.656Z,5.18
2023-02-12T23:25:21.918Z,4.72
2023-02-12T23:27:49.139Z,4.70
2023-02-12T23:30:16.456Z,3.90
2023-02-12T23:32:43.708Z,4.00
2023-02-12T23:35:10.986Z,4.10
2023-02-12T23:37:38.237Z,4.00
2023-02-12T23:40:07.139Z,3.72
2023-02-12T23:42:34.385Z,3.95
2023-02-12T23:45:01.574Z,4.07
2023-02-12T23:47:29.167Z,4.22
2023-02-12T23:49:56.376Z,4.00
2023-02-12T23:52:23.847Z,4.80
2023-02-12T23:54:51.338Z,4.80
2023-02-12T23:57:18.640Z,4.78
2023-02-12T23:59:45.906Z,4.57
